createdAt,value
2022-08-18T00:01:45.484Z,101265.66
2022-08-18T00:04:35.860Z,101269.02
2022-08-18T00:07:08.347Z,101267.84
2022-08-18T00:09:39.372Z,101274.89
2022-08-18T00:12:18.226Z,101269.26
2022-08-18T00:14:47.378Z,101264.54
2022-08-18T00:17:17.823Z,101265.67
2022-08-18T00:19:48.336Z,101268.29
2022-08-18T00:22:20.243Z,101274.42
2022-08-18T00:24:54.693Z,101273.02
2022-08-18T00:27:30.973Z,101269.55
2022-08-18T00:30:02.011Z,101267.87
2022-08-18T00:32:34.019Z,101269.59
2022-08-18T00:35:15.202Z,101272.90
2022-08-18T00:37:43.560Z,101273.48
2022-08-18T00:40:15.870Z,101273.37
2022-08-18T00:42:50.674Z,101276.09
2022-08-18T00:45:24.144Z,101277.66
2022-08-18T00:47:52.941Z,101275.77
2022-08-18T00:50:32.406Z,101274.09
2022-08-18T00:53:40.666Z,101271.05
2022-08-18T00:56:15.244Z,101267.10
2022-08-18T00:59:05.946Z,101263.86
2022-08-18T01:01:35.553Z,101263.21
2022-08-18T01:04:16.482Z,101262.46
2022-08-18T01:06:58.255Z,101271.92
2022-08-18T01:09:26.874Z,101280.15
2022-08-18T01:11:56.515Z,101277.40
2022-08-18T01:14:25.164Z,101282.52
2022-08-18T01:17:11.926Z,101284.70
2022-08-18T01:19:58.976Z,101284.70
2022-08-18T01:22:38.713Z,101281.17
2022-08-18T01:25:28.030Z,101280.92
2022-08-18T01:28:00.976Z,101274.27
2022-08-18T01:30:31.233Z,101278.61
2022-08-18T01:32:59.457Z,101273.80
2022-08-18T01:35:28.575Z,101272.61
2022-08-18T01:38:05.943Z,101267.84
2022-08-18T01:41:27.815Z,101274.45
2022-08-18T01:43:22.255Z,101273.95
2022-08-18T01:45:50.637Z,101272.20
2022-08-18T01:48:18.878Z,101271.84
2022-08-18T01:50:49.472Z,101273.64
2022-08-18T01:53:19.308Z,101265.80
2022-08-18T01:55:47.400Z,101261.86
2022-08-18T01:58:15.609Z,101262.34
2022-08-18T02:00:43.833Z,101265.36
2022-08-18T02:03:14.535Z,101264.60
2022-08-18T02:05:50.619Z,101257.89
2022-08-18T02:08:19.162Z,101260.21
2022-08-18T02:10:47.262Z,101257.73
2022-08-18T02:13:15.431Z,101240.18
2022-08-18T02:15:43.568Z,101243.37
2022-08-18T02:18:46.809Z,101255.86
2022-08-18T02:21:12.638Z,101252.55
2022-08-18T02:23:44.940Z,101256.88
2022-08-18T02:26:23.505Z,101250.48
2022-08-18T02:28:52.508Z,101249.84
2022-08-18T02:31:24.490Z,101250.71
2022-08-18T02:33:53.015Z,101251.63
2022-08-18T02:36:23.965Z,101257.42
2022-08-18T02:38:58.737Z,101257.80
2022-08-18T02:41:29.775Z,101252.23
2022-08-18T02:43:58.788Z,101249.09
2022-08-18T02:46:29.832Z,101248.77
2022-08-18T02:49:00.335Z,101250.23
2022-08-18T02:51:28.604Z,101249.80
2022-08-18T02:54:00.345Z,101251.30
2022-08-18T02:56:39.883Z,101251.42
2022-08-18T02:59:15.936Z,101248.92
2022-08-18T03:01:48.758Z,101251.52
2022-08-18T03:04:26.644Z,101250.98
2022-08-18T03:06:59.637Z,101249.41
2022-08-18T03:09:29.414Z,101253.05
2022-08-18T03:11:58.539Z,101254.23
2022-08-18T03:14:26.850Z,101256.77
2022-08-18T03:16:55.476Z,101237.20
2022-08-18T03:19:28.483Z,101258.50
2022-08-18T03:22:02.951Z,101260.98
2022-08-18T03:24:33.198Z,101246.06
2022-08-18T03:27:06.142Z,101265.73
2022-08-18T03:29:35.738Z,101265.80
2022-08-18T03:32:06.955Z,101272.78
2022-08-18T03:34:35.574Z,101270.84
2022-08-18T03:37:04.019Z,101275.82
2022-08-18T03:39:32.168Z,101264.25
2022-08-18T03:42:02.137Z,101281.96
2022-08-18T03:44:34.116Z,101283.31
2022-08-18T03:47:05.051Z,101283.96
2022-08-18T03:49:34.014Z,101283.91
2022-08-18T03:52:03.357Z,101289.65
2022-08-18T03:54:32.513Z,101288.20
2022-08-18T03:59:46.865Z,101279.96
2022-08-18T04:02:15.595Z,101287.16
2022-08-18T04:04:43.825Z,101289.59
2022-08-18T04:07:17.311Z,101295.39
2022-08-18T04:09:45.947Z,101290.14
2022-08-18T04:12:17.431Z,101286.58
2022-08-18T04:14:49.486Z,101282.89
2022-08-18T04:17:24.409Z,101286.02
2022-08-18T04:19:54.894Z,101286.13
2022-08-18T04:22:25.007Z,101255.86
2022-08-18T04:24:53.670Z,101286.67
2022-08-18T04:27:22.325Z,101286.61
2022-08-18T04:29:50.478Z,101286.05
2022-08-18T04:32:19.681Z,101290.23
2022-08-18T04:34:47.838Z,101294.89
2022-08-18T04:37:17.410Z,101300.07
2022-08-18T04:39:45.974Z,101297.40
2022-08-18T04:42:15.366Z,101295.35
2022-08-18T04:44:43.774Z,101294.10
2022-08-18T04:47:13.002Z,101293.23
2022-08-18T04:49:41.210Z,101295.27
2022-08-18T04:52:40.052Z,101298.54
2022-08-18T04:55:10.982Z,101298.31
2022-08-18T04:57:39.621Z,101300.77
2022-08-18T05:00:09.007Z,101299.80
2022-08-18T05:02:37.145Z,101297.90
2022-08-18T05:05:06.216Z,101300.37
2022-08-18T05:07:34.359Z,101297.09
2022-08-18T05:10:02.576Z,101301.25
2022-08-18T05:12:30.697Z,101277.02
2022-08-18T05:14:58.929Z,101302.89
2022-08-18T05:17:30.555Z,101298.64
2022-08-18T05:20:00.897Z,101299.03
2022-08-18T05:22:31.516Z,101303.05
2022-08-18T05:27:46.103Z,101306.55
2022-08-18T05:30:15.537Z,101305.34
2022-08-18T05:32:50.086Z,101299.17
2022-08-18T05:35:37.621Z,101302.05
2022-08-18T05:38:33.129Z,101303.05
2022-08-18T05:41:13.670Z,101305.19
2022-08-18T05:43:52.151Z,101306.28
2022-08-18T05:46:34.876Z,101307.66
2022-08-18T05:49:03.050Z,101303.39
2022-08-18T05:51:41.180Z,101310.44
2022-08-18T05:54:28.322Z,101307.56
2022-08-18T05:57:00.344Z,101307.68
2022-08-18T05:59:38.553Z,101308.58
2022-08-18T06:02:13.120Z,101307.68
2022-08-18T06:04:55.258Z,101310.35
2022-08-18T06:07:33.578Z,101310.81
2022-08-18T06:10:05.795Z,101314.14
2022-08-18T06:12:37.281Z,101315.29
2022-08-18T06:15:31.506Z,101311.23
2022-08-18T06:18:30.467Z,101295.21
2022-08-18T06:21:11.621Z,101309.90
2022-08-18T06:23:51.609Z,101311.33
2022-08-18T06:26:34.585Z,101310.70
2022-08-18T06:29:23.161Z,101311.21
2022-08-18T06:32:23.343Z,101311.59
2022-08-18T06:35:11.008Z,101311.93
2022-08-18T06:38:25.464Z,101317.59
2022-08-18T06:41:40.808Z,101313.42
2022-08-18T06:44:07.289Z,101313.89
2022-08-18T06:46:45.043Z,101317.16
2022-08-18T06:49:28.899Z,101317.98
2022-08-18T06:51:57.295Z,101318.66
2022-08-18T06:54:29.455Z,101322.07
2022-08-18T06:56:58.944Z,101319.42
2022-08-18T06:59:28.971Z,101321.34
2022-08-18T07:02:14.729Z,101323.89
2022-08-18T07:04:59.618Z,101323.81
2022-08-18T07:07:39.411Z,101329.10
2022-08-18T07:10:34.685Z,101329.95
2022-08-18T07:13:16.482Z,101331.69
2022-08-18T07:15:45.885Z,101328.05
2022-08-18T07:18:21.058Z,101329.19
2022-08-18T07:20:59.117Z,101325.55
2022-08-18T07:23:34.168Z,101319.92
2022-08-18T07:26:02.294Z,101316.61
2022-08-18T07:28:41.971Z,101317.05
2022-08-18T07:31:17.249Z,101315.69
2022-08-18T07:34:14.129Z,101316.83
2022-08-18T07:36:53.342Z,101318.23
2022-08-18T07:39:31.931Z,101315.38
2022-08-18T07:42:37.298Z,101317.93
2022-08-18T07:45:18.237Z,101316.20
2022-08-18T07:47:55.091Z,101316.78
2022-08-18T07:50:57.449Z,101319.42
2022-08-18T07:53:55.573Z,101317.48
2022-08-18T07:56:45.922Z,101315.02
2022-08-18T07:59:25.498Z,101316.84
2022-08-18T08:02:01.318Z,101316.11
2022-08-18T08:05:02.053Z,101314.02
2022-08-18T08:07:37.698Z,101312.27
2022-08-18T08:10:31.223Z,101313.21
2022-08-18T08:13:53.631Z,101316.94
2022-08-18T08:16:25.466Z,101319.17
2022-08-18T08:19:49.403Z,101320.11
2022-08-18T08:22:38.194Z,101322.71
2022-08-18T08:25:44.505Z,101316.04
2022-08-18T08:28:23.077Z,101326.11
2022-08-18T08:31:36.766Z,101328.88
2022-08-18T08:34:06.231Z,101326.30
2022-08-18T08:36:39.744Z,101318.23
2022-08-18T08:39:21.910Z,101315.91
2022-08-18T08:41:57.573Z,101320.12
2022-08-18T08:44:59.212Z,101321.22
2022-08-18T08:47:52.236Z,101313.41
2022-08-18T08:50:24.968Z,101314.57
2022-08-18T08:52:59.485Z,101313.25
2022-08-18T08:55:31.583Z,101316.00
2022-08-18T08:58:24.714Z,101320.31
2022-08-18T09:03:46.611Z,101316.15
2022-08-18T09:06:30.619Z,101312.02
2022-08-18T09:09:17.025Z,101310.75
2022-08-18T09:12:12.387Z,101299.42
2022-08-18T09:15:19.181Z,101309.02
2022-08-18T09:18:24.214Z,101311.15
2022-08-18T09:21:06.268Z,101312.12
2022-08-18T09:23:44.344Z,101315.28
2022-08-18T09:26:39.916Z,101312.81
2022-08-18T09:29:46.761Z,101307.39
2022-08-18T09:32:22.969Z,101304.69
2022-08-18T09:35:07.143Z,101305.77
2022-08-18T09:37:41.385Z,101305.05
2022-08-18T09:41:01.142Z,101302.04
2022-08-18T09:43:39.470Z,101295.35
2022-08-18T09:46:12.391Z,101291.83
2022-08-18T09:48:43.200Z,101289.89
2022-08-18T09:51:35.809Z,101295.35
2022-08-18T09:54:14.733Z,101292.31
2022-08-18T09:56:54.321Z,101292.15
2022-08-18T10:00:02.890Z,101284.14
2022-08-18T10:02:38.291Z,101290.95
2022-08-18T10:05:16.549Z,101294.39
2022-08-18T10:07:50.133Z,101294.77
2022-08-18T10:11:09.071Z,101291.35
2022-08-18T10:14:07.246Z,101287.61
2022-08-18T10:19:57.810Z,101291.95
2022-08-18T10:22:38.627Z,101269.14
2022-08-18T10:25:22.953Z,101279.69
2022-08-18T10:27:58.532Z,101289.23
2022-08-18T10:30:31.136Z,101289.44
2022-08-18T10:33:17.737Z,101293.19
2022-08-18T10:35:57.570Z,101290.92
2022-08-18T10:38:39.099Z,101289.98
2022-08-18T10:41:26.185Z,101288.67
2022-08-18T10:43:57.636Z,101289.51
2022-08-18T10:46:33.145Z,101289.51
2022-08-18T10:49:17.386Z,101289.38
2022-08-18T10:52:00.032Z,101276.41
2022-08-18T10:54:29.374Z,101285.30
2022-08-18T10:57:19.376Z,101286.88
2022-08-18T11:00:18.760Z,101286.15
2022-08-18T11:03:13.990Z,101289.67
2022-08-18T11:05:35.799Z,101289.55
2022-08-18T11:08:15.988Z,101282.98
2022-08-18T11:13:47.270Z,101276.99
2022-08-18T11:16:54.269Z,101279.48
2022-08-18T11:19:23.275Z,101278.64
2022-08-18T11:21:53.289Z,101277.75
2022-08-18T11:24:25.197Z,101282.06
2022-08-18T11:26:56.354Z,101278.89
2022-08-18T11:32:46.777Z,101272.36
2022-08-18T11:35:25.232Z,101272.05
2022-08-18T11:38:02.515Z,101270.48
2022-08-18T11:41:10.413Z,101268.48
2022-08-18T11:43:41.596Z,101270.39
2022-08-18T11:46:38.934Z,101263.96
2022-08-18T11:49:24.455Z,101259.60
2022-08-18T11:52:03.433Z,101259.00
2022-08-18T11:54:50.306Z,101256.51
2022-08-18T11:57:46.561Z,101253.17
2022-08-18T12:00:42.470Z,101249.56
2022-08-18T12:03:20.196Z,101244.95
2022-08-18T12:05:58.486Z,101242.47
2022-08-18T12:08:57.173Z,101240.83
2022-08-18T12:11:33.206Z,101242.84
2022-08-18T12:14:32.639Z,101237.23
2022-08-18T12:17:04.906Z,101219.05
2022-08-18T12:19:34.858Z,101223.32
2022-08-18T12:22:18.531Z,101217.95
2022-08-18T12:24:48.364Z,101220.18
2022-08-18T12:27:36.067Z,101217.55
2022-08-18T12:30:05.783Z,101220.18
2022-08-18T12:32:47.002Z,101218.76
2022-08-18T12:35:21.869Z,101215.61
2022-08-18T12:38:00.059Z,101210.35
2022-08-18T12:40:40.111Z,101207.86
2022-08-18T12:43:08.407Z,101200.84
2022-08-18T12:45:38.194Z,101202.45
2022-08-18T12:48:07.810Z,101197.15
2022-08-18T12:53:29.964Z,101199.92
2022-08-18T12:56:20.031Z,101193.33
2022-08-18T12:58:49.890Z,101189.94
2022-08-18T13:01:19.749Z,101185.09
2022-08-18T13:03:52.767Z,101184.77
2022-08-18T13:06:41.325Z,101175.40
2022-08-18T13:09:35.253Z,101177.77
2022-08-18T13:12:17.354Z,101175.83
2022-08-18T13:14:46.882Z,101169.12
2022-08-18T13:17:30.414Z,101175.77
2022-08-18T13:20:09.554Z,101184.02
2022-08-18T13:22:40.637Z,101186.64
2022-08-18T13:25:13.291Z,101178.56
2022-08-18T13:28:02.601Z,101179.48
2022-08-18T13:30:32.508Z,101179.60
2022-08-18T13:33:05.373Z,101179.21
2022-08-18T13:35:44.570Z,101177.14
2022-08-18T13:38:20.804Z,101172.61
2022-08-18T13:40:51.267Z,101170.07
2022-08-18T13:43:26.065Z,101166.42
2022-08-18T13:45:56.124Z,101170.04
2022-08-18T13:48:25.767Z,101171.77
2022-08-18T13:50:56.659Z,101165.87
2022-08-18T13:53:27.440Z,101169.14
2022-08-18T13:56:00.146Z,101167.85
2022-08-18T13:58:29.626Z,101164.90
2022-08-18T14:01:39.497Z,101169.86
2022-08-18T14:03:53.205Z,101164.45
2022-08-18T14:06:22.687Z,101167.34
2022-08-18T14:08:53.721Z,101165.28
2022-08-18T14:11:32.945Z,101165.81
2022-08-18T14:14:02.307Z,101155.38
2022-08-18T14:16:31.959Z,101158.97
2022-08-18T14:19:18.856Z,101160.06
2022-08-18T14:22:12.431Z,101158.04
2022-08-18T14:25:01.243Z,101156.80
2022-08-18T14:27:35.086Z,101156.45
2022-08-18T14:30:14.828Z,101152.83
2022-08-18T14:32:49.131Z,101152.77
2022-08-18T14:36:04.096Z,101153.27
2022-08-18T14:38:09.117Z,101144.33
2022-08-18T14:40:41.692Z,101161.23
2022-08-18T14:43:14.263Z,101164.11
2022-08-18T14:45:48.879Z,101163.81
2022-08-18T14:48:20.376Z,101158.23
2022-08-18T14:50:52.650Z,101162.19
2022-08-18T14:53:23.100Z,101161.73
2022-08-18T14:55:53.424Z,101159.34
2022-08-18T14:58:28.842Z,101156.80
2022-08-18T15:00:59.347Z,101156.48
2022-08-18T15:03:31.505Z,101157.23
2022-08-18T15:06:04.794Z,101149.42
2022-08-18T15:08:35.891Z,101149.91
2022-08-18T15:11:11.834Z,101149.73
2022-08-18T15:13:43.587Z,101155.30
2022-08-18T15:16:15.206Z,101159.59
2022-08-18T15:18:44.862Z,101157.77
2022-08-18T15:21:38.857Z,101155.44
2022-08-18T15:24:26.868Z,101155.17
2022-08-18T15:27:05.972Z,101155.64
2022-08-18T15:29:41.594Z,101150.23
2022-08-18T15:32:16.929Z,101150.14
2022-08-18T15:34:47.153Z,101148.40
2022-08-18T15:37:24.171Z,101148.54
2022-08-18T15:40:02.930Z,101148.71
2022-08-18T15:42:31.309Z,101153.50
2022-08-18T15:45:11.514Z,101144.06
2022-08-18T15:47:43.274Z,101139.17
2022-08-18T15:50:25.255Z,101140.74
2022-08-18T15:53:00.756Z,101138.34
2022-08-18T15:55:35.874Z,101137.51
2022-08-18T15:58:10.794Z,101129.98
2022-08-18T16:00:45.474Z,101138.02
2022-08-18T16:03:16.047Z,101133.06
2022-08-18T16:05:53.223Z,101134.64
2022-08-18T16:08:24.623Z,101131.46
2022-08-18T16:10:53.785Z,101125.89
2022-08-18T16:13:23.283Z,101125.61
2022-08-18T16:15:51.448Z,101123.38
2022-08-18T16:18:21.404Z,101122.33
2022-08-18T16:20:50.608Z,101121.77
2022-08-18T16:23:21.250Z,101127.11
2022-08-18T16:25:49.478Z,101115.60
2022-08-18T16:28:17.632Z,101119.90
2022-08-18T16:30:47.302Z,101120.31
2022-08-18T16:33:15.527Z,101114.64
2022-08-18T16:35:45.404Z,101109.60
2022-08-18T16:38:13.944Z,101099.40
2022-08-18T16:40:42.124Z,101096.58
2022-08-18T16:43:11.800Z,101094.42
2022-08-18T16:45:43.149Z,101095.30
2022-08-18T16:48:14.209Z,101098.98
2022-08-18T16:50:45.437Z,101109.58
2022-08-18T16:53:13.545Z,101114.55
2022-08-18T16:55:43.425Z,101120.92
2022-08-18T16:58:30.480Z,101129.41
2022-08-18T17:01:18.757Z,101130.30
2022-08-18T17:04:13.373Z,101133.50
2022-08-18T17:06:47.339Z,101131.23
2022-08-18T17:09:18.371Z,101132.39
2022-08-18T17:11:51.419Z,101139.91
2022-08-18T17:14:26.641Z,101142.08
2022-08-18T17:16:55.596Z,101143.23
2022-08-18T17:19:26.316Z,101147.61
2022-08-18T17:21:54.571Z,101148.20
2022-08-18T17:24:31.097Z,101147.70
2022-08-18T17:27:20.367Z,101150.19
2022-08-18T17:30:16.113Z,101152.78
2022-08-18T17:32:50.003Z,101151.92
2022-08-18T17:35:28.955Z,101156.88
2022-08-18T17:38:02.518Z,101157.02
2022-08-18T17:40:39.190Z,101159.52
2022-08-18T17:43:12.571Z,101160.67
2022-08-18T17:45:40.995Z,101166.73
2022-08-18T17:48:16.394Z,101165.70
2022-08-18T17:51:13.174Z,101168.42
2022-08-18T17:53:41.445Z,101168.08
2022-08-18T17:56:19.526Z,101167.79
2022-08-18T17:58:55.935Z,101167.73
2022-08-18T18:01:26.147Z,101162.98
2022-08-18T18:03:54.695Z,101160.63
2022-08-18T18:06:34.906Z,101157.27
2022-08-18T18:09:08.555Z,101157.45
2022-08-18T18:11:41.395Z,101153.70
2022-08-18T18:14:30.103Z,101151.66
2022-08-18T18:17:14.558Z,101146.13
2022-08-18T18:19:45.023Z,101139.52
2022-08-18T18:22:28.499Z,101134.99
2022-08-18T18:25:04.788Z,101116.80
2022-08-18T18:27:33.204Z,101130.16
2022-08-18T18:30:06.835Z,101133.34
2022-08-18T18:32:58.955Z,101140.01
2022-08-18T18:35:53.348Z,101145.66
2022-08-18T18:38:49.102Z,101147.36
2022-08-18T18:41:17.197Z,101152.67
2022-08-18T18:43:48.475Z,101150.88
2022-08-18T18:46:23.365Z,101150.79
2022-08-18T18:49:10.116Z,101151.64
2022-08-18T18:51:50.586Z,101154.89
2022-08-18T18:54:40.563Z,101158.48
2022-08-18T18:57:17.975Z,101164.91
2022-08-18T19:02:36.782Z,101165.58
2022-08-18T19:05:20.569Z,101171.01
2022-08-18T19:07:48.556Z,101169.94
2022-08-18T19:10:26.551Z,101165.65
2022-08-18T19:12:59.864Z,101162.14
2022-08-18T19:15:33.368Z,101163.68
2022-08-18T19:18:24.970Z,101162.93
2022-08-18T19:22:02.142Z,101145.98
2022-08-18T19:24:00.151Z,101161.89
2022-08-18T19:26:38.351Z,101158.92
2022-08-18T19:29:14.285Z,101156.77
2022-08-18T19:31:47.900Z,101157.12
2022-08-18T19:34:31.015Z,101155.80
2022-08-18T19:37:13.907Z,101124.16
2022-08-18T19:40:17.503Z,101153.73
2022-08-18T19:42:58.715Z,101158.58
2022-08-18T19:45:53.284Z,101159.85
2022-08-18T19:48:51.551Z,101166.30
2022-08-18T19:51:34.160Z,101165.52
2022-08-18T19:54:33.252Z,101169.21
2022-08-18T19:57:24.606Z,101166.42
2022-08-18T20:00:18.409Z,101162.38
2022-08-18T20:03:33.880Z,101166.87
2022-08-18T20:06:33.863Z,101167.92
2022-08-18T20:09:15.397Z,101169.01
2022-08-18T20:12:02.273Z,101167.46
2022-08-18T20:14:35.761Z,101171.96
2022-08-18T20:17:07.177Z,101175.55
2022-08-18T20:19:43.446Z,101176.78
2022-08-18T20:22:29.470Z,101182.48
2022-08-18T20:25:06.192Z,101183.20
2022-08-18T20:27:59.085Z,101187.05
2022-08-18T20:30:53.037Z,101185.62
2022-08-18T20:33:24.236Z,101185.91
2022-08-18T20:36:13.111Z,101184.80
2022-08-18T20:38:47.363Z,101183.36
2022-08-18T20:41:47.314Z,101184.62
2022-08-18T20:44:29.661Z,101185.65
2022-08-18T20:47:19.141Z,101188.74
2022-08-18T20:50:22.325Z,101191.13
2022-08-18T20:53:30.306Z,101185.86
2022-08-18T20:56:32.712Z,101189.43
2022-08-18T20:59:19.997Z,101191.55
2022-08-18T21:02:07.874Z,101192.96
2022-08-18T21:04:57.918Z,101193.61
2022-08-18T21:07:39.823Z,101199.41
2022-08-18T21:10:18.214Z,101197.05
2022-08-18T21:12:53.975Z,101199.46
2022-08-18T21:15:26.633Z,101199.30
2022-08-18T21:17:58.748Z,101196.71
2022-08-18T21:20:28.421Z,101198.70
2022-08-18T21:23:14.306Z,101199.17
2022-08-18T21:25:53.834Z,101193.89
2022-08-18T21:28:25.294Z,101195.69
2022-08-18T21:31:41.773Z,101193.65
2022-08-18T21:33:53.898Z,101192.08
2022-08-18T21:36:25.573Z,101188.35
2022-08-18T21:39:05.380Z,101185.41
2022-08-18T21:41:42.285Z,101185.06
2022-08-18T21:44:16.242Z,101188.40
2022-08-18T21:46:46.109Z,101186.77
2022-08-18T21:49:25.647Z,101191.02
2022-08-18T21:51:54.751Z,101188.65
2022-08-18T21:54:28.698Z,101185.11
2022-08-18T21:57:22.058Z,101185.04
2022-08-18T22:00:14.758Z,101186.41
2022-08-18T22:02:43.485Z,101189.40
2022-08-18T22:05:12.996Z,101188.36
2022-08-18T22:07:48.193Z,101190.51
2022-08-18T22:10:47.686Z,101188.15
2022-08-18T22:13:44.032Z,101185.81
2022-08-18T22:16:23.532Z,101181.86
2022-08-18T22:18:52.016Z,101184.21
2022-08-18T22:21:32.677Z,101185.75
2022-08-18T22:24:19.572Z,101187.52
2022-08-18T22:26:49.219Z,101188.02
2022-08-18T22:29:37.086Z,101181.77
2022-08-18T22:32:13.967Z,101180.64
2022-08-18T22:34:42.550Z,101180.83
2022-08-18T22:37:13.624Z,101175.77
2022-08-18T22:39:54.784Z,101174.70
2022-08-18T22:42:26.557Z,101175.89
2022-08-18T22:44:54.890Z,101179.69
2022-08-18T22:47:24.150Z,101168.45
2022-08-18T22:49:52.466Z,101179.88
2022-08-18T22:52:29.736Z,101176.35
2022-08-18T22:55:08.007Z,101178.20
2022-08-18T22:57:37.583Z,101180.01
2022-08-18T23:00:13.087Z,101183.77
2022-08-18T23:02:42.037Z,101178.96
2022-08-18T23:05:11.249Z,101172.91
2022-08-18T23:07:39.518Z,101171.92
2022-08-18T23:10:14.297Z,101167.34
2022-08-18T23:12:44.579Z,101168.25
2022-08-18T23:15:13.757Z,101170.04
2022-08-18T23:17:43.589Z,101169.39
2022-08-18T23:20:17.851Z,101171.42
2022-08-18T23:22:48.445Z,101170.17
2022-08-18T23:25:17.209Z,101165.83
2022-08-18T23:27:45.506Z,101168.24
2022-08-18T23:30:15.312Z,101169.98
2022-08-18T23:32:43.770Z,101162.79
2022-08-18T23:35:11.931Z,101159.52
2022-08-18T23:37:41.352Z,101156.77
2022-08-18T23:40:17.230Z,101150.97
2022-08-18T23:42:46.636Z,101147.65
2022-08-18T23:45:15.706Z,101132.95
2022-08-18T23:47:44.026Z,101132.55
2022-08-18T23:50:12.260Z,101149.24
2022-08-18T23:52:41.160Z,101148.54
2022-08-18T23:55:13.511Z,101150.84
2022-08-18T23:57:41.666Z,101152.77
